sensor_id;sensor_type;location;lat;lon;timestamp;P1;durP1;ratioP1;P2;durP2;ratioP2
46090;SDS011;31826;53.572;10.170;2023-04-03T00:00:12;6.85;;;1.80;;
46090;SDS011;31826;53.572;10.170;2023-04-03T00:02:38;7.25;;;1.85;;
46090;SDS011;31826;53.572;10.170;2023-04-03T00:05:05;4.50;;;1.67;;
46090;SDS011;31826;53.572;10.170;2023-04-03T00:07:32;4.75;;;1.90;;
46090;SDS011;31826;53.572;10.170;2023-04-03T00:09:58;5.67;;;1.87;;
46090;SDS011;31826;53.572;10.170;2023-04-03T00:12:23;6.97;;;2.00;;
46090;SDS011;31826;53.572;10.170;2023-04-03T00:14:49;7.47;;;2.03;;
46090;SDS011;31826;53.572;10.170;2023-04-03T00:17:15;8.40;;;2.00;;
46090;SDS011;31826;53.572;10.170;2023-04-03T00:19:40;6.13;;;2.40;;
46090;SDS011;31826;53.572;10.170;2023-04-03T00:22:06;7.77;;;3.03;;
46090;SDS011;31826;53.572;10.170;2023-04-03T00:24:32;9.50;;;2.73;;
46090;SDS011;31826;53.572;10.170;2023-04-03T00:26:57;10.17;;;2.70;;
46090;SDS011;31826;53.572;10.170;2023-04-03T00:29:23;9.40;;;2.53;;
46090;SDS011;31826;53.572;10.170;2023-04-03T00:31:49;9.27;;;2.50;;
46090;SDS011;31826;53.572;10.170;2023-04-03T00:34:15;7.35;;;2.47;;
46090;SDS011;31826;53.572;10.170;2023-04-03T00:36:41;7.47;;;2.40;;
46090;SDS011;31826;53.572;10.170;2023-04-03T00:39:06;9.50;;;2.57;;
46090;SDS011;31826;53.572;10.170;2023-04-03T00:41:32;6.30;;;2.30;;
46090;SDS011;31826;53.572;10.170;2023-04-03T00:43:58;6.83;;;2.10;;
46090;SDS011;31826;53.572;10.170;2023-04-03T00:46:24;6.65;;;2.25;;
46090;SDS011;31826;53.572;10.170;2023-04-03T00:48:50;6.28;;;2.05;;
46090;SDS011;31826;53.572;10.170;2023-04-03T00:51:23;8.13;;;2.50;;
46090;SDS011;31826;53.572;10.170;2023-04-03T00:53:59;7.22;;;2.30;;
46090;SDS011;31826;53.572;10.170;2023-04-03T00:56:27;7.65;;;2.35;;
46090;SDS011;31826;53.572;10.170;2023-04-03T00:58:59;6.80;;;2.53;;
46090;SDS011;31826;53.572;10.170;2023-04-03T01:01:36;5.97;;;2.03;;
46090;SDS011;31826;53.572;10.170;2023-04-03T01:04:03;7.65;;;2.20;;
46090;SDS011;31826;53.572;10.170;2023-04-03T01:06:32;6.38;;;2.10;;
46090;SDS011;31826;53.572;10.170;2023-04-03T01:09:00;6.97;;;2.20;;
46090;SDS011;31826;53.572;10.170;2023-04-03T01:11:26;6.38;;;1.80;;
46090;SDS011;31826;53.572;10.170;2023-04-03T01:13:52;8.63;;;2.20;;
46090;SDS011;31826;53.572;10.170;2023-04-03T01:16:18;6.03;;;2.10;;
46090;SDS011;31826;53.572;10.170;2023-04-03T01:18:44;5.45;;;1.80;;
46090;SDS011;31826;53.572;10.170;2023-04-03T01:21:16;8.13;;;2.55;;
46090;SDS011;31826;53.572;10.170;2023-04-03T01:24:15;5.83;;;1.70;;
46090;SDS011;31826;53.572;10.170;2023-04-03T01:26:54;5.68;;;1.92;;
46090;SDS011;31826;53.572;10.170;2023-04-03T01:29:20;8.35;;;2.10;;
46090;SDS011;31826;53.572;10.170;2023-04-03T01:34:19;6.93;;;1.90;;
46090;SDS011;31826;53.572;10.170;2023-04-03T01:36:45;4.93;;;1.70;;
46090;SDS011;31826;53.572;10.170;2023-04-03T01:39:11;5.22;;;2.00;;
46090;SDS011;31826;53.572;10.170;2023-04-03T01:41:37;7.80;;;1.98;;
46090;SDS011;31826;53.572;10.170;2023-04-03T01:44:03;4.22;;;1.83;;
46090;SDS011;31826;53.572;10.170;2023-04-03T01:46:29;7.50;;;2.17;;
46090;SDS011;31826;53.572;10.170;2023-04-03T01:48:55;5.13;;;1.83;;
46090;SDS011;31826;53.572;10.170;2023-04-03T01:51:21;5.40;;;2.00;;
46090;SDS011;31826;53.572;10.170;2023-04-03T01:53:47;4.38;;;1.73;;
46090;SDS011;31826;53.572;10.170;2023-04-03T01:56:12;4.07;;;1.70;;
46090;SDS011;31826;53.572;10.170;2023-04-03T01:58:38;4.77;;;1.83;;
46090;SDS011;31826;53.572;10.170;2023-04-03T02:01:04;9.43;;;2.08;;
46090;SDS011;31826;53.572;10.170;2023-04-03T02:03:30;4.18;;;1.85;;
46090;SDS011;31826;53.572;10.170;2023-04-03T02:05:56;6.72;;;2.05;;
46090;SDS011;31826;53.572;10.170;2023-04-03T02:08:22;4.60;;;1.80;;
46090;SDS011;31826;53.572;10.170;2023-04-03T02:10:48;7.03;;;1.90;;
46090;SDS011;31826;53.572;10.170;2023-04-03T02:13:15;4.53;;;1.90;;
46090;SDS011;31826;53.572;10.170;2023-04-03T02:15:41;6.40;;;1.92;;
46090;SDS011;31826;53.572;10.170;2023-04-03T02:18:07;3.83;;;1.67;;
46090;SDS011;31826;53.572;10.170;2023-04-03T02:20:33;6.22;;;2.00;;
46090;SDS011;31826;53.572;10.170;2023-04-03T02:22:59;6.93;;;2.08;;
46090;SDS011;31826;53.572;10.170;2023-04-03T02:25:25;4.10;;;1.67;;
46090;SDS011;31826;53.572;10.170;2023-04-03T02:27:51;10.25;;;2.00;;
46090;SDS011;31826;53.572;10.170;2023-04-03T02:30:17;6.82;;;1.98;;
46090;SDS011;31826;53.572;10.170;2023-04-03T02:32:43;5.63;;;1.80;;
46090;SDS011;31826;53.572;10.170;2023-04-03T02:35:09;5.60;;;1.88;;
46090;SDS011;31826;53.572;10.170;2023-04-03T02:37:36;8.00;;;2.00;;
46090;SDS011;31826;53.572;10.170;2023-04-03T02:40:02;6.70;;;1.95;;
46090;SDS011;31826;53.572;10.170;2023-04-03T02:42:29;8.35;;;2.10;;
46090;SDS011;31826;53.572;10.170;2023-04-03T02:44:55;5.50;;;2.00;;
46090;SDS011;31826;53.572;10.170;2023-04-03T02:47:20;6.50;;;1.90;;
46090;SDS011;31826;53.572;10.170;2023-04-03T02:49:46;6.47;;;2.00;;
46090;SDS011;31826;53.572;10.170;2023-04-03T02:52:12;5.57;;;1.75;;
46090;SDS011;31826;53.572;10.170;2023-04-03T02:54:39;4.25;;;1.98;;
46090;SDS011;31826;53.572;10.170;2023-04-03T02:57:05;5.88;;;1.88;;
46090;SDS011;31826;53.572;10.170;2023-04-03T02:59:33;4.97;;;1.98;;
46090;SDS011;31826;53.572;10.170;2023-04-03T03:02:00;4.88;;;1.60;;
46090;SDS011;31826;53.572;10.170;2023-04-03T03:04:26;4.80;;;1.77;;
46090;SDS011;31826;53.572;10.170;2023-04-03T03:06:52;4.23;;;1.60;;
46090;SDS011;31826;53.572;10.170;2023-04-03T03:09:17;3.47;;;2.07;;
46090;SDS011;31826;53.572;10.170;2023-04-03T03:11:43;6.27;;;1.97;;
46090;SDS011;31826;53.572;10.170;2023-04-03T03:14:09;5.80;;;2.30;;
46090;SDS011;31826;53.572;10.170;2023-04-03T03:16:35;6.77;;;2.30;;
46090;SDS011;31826;53.572;10.170;2023-04-03T03:19:00;5.28;;;1.95;;
46090;SDS011;31826;53.572;10.170;2023-04-03T03:21:26;6.60;;;2.20;;
46090;SDS011;31826;53.572;10.170;2023-04-03T03:23:52;8.95;;;2.22;;
46090;SDS011;31826;53.572;10.170;2023-04-03T03:26:18;7.55;;;2.17;;
46090;SDS011;31826;53.572;10.170;2023-04-03T03:28:44;10.67;;;2.37;;
46090;SDS011;31826;53.572;10.170;2023-04-03T03:31:10;8.23;;;2.60;;
46090;SDS011;31826;53.572;10.170;2023-04-03T03:33:37;8.10;;;2.30;;
46090;SDS011;31826;53.572;10.170;2023-04-03T03:36:03;8.98;;;2.60;;
46090;SDS011;31826;53.572;10.170;2023-04-03T03:38:29;7.13;;;2.70;;
46090;SDS011;31826;53.572;10.170;2023-04-03T03:40:54;7.70;;;2.33;;
46090;SDS011;31826;53.572;10.170;2023-04-03T03:43:20;9.02;;;3.05;;
46090;SDS011;31826;53.572;10.170;2023-04-03T03:45:49;9.05;;;2.90;;
46090;SDS011;31826;53.572;10.170;2023-04-03T03:48:17;9.48;;;3.22;;
46090;SDS011;31826;53.572;10.170;2023-04-03T03:50:43;7.38;;;2.63;;
46090;SDS011;31826;53.572;10.170;2023-04-03T03:53:08;12.27;;;2.67;;
46090;SDS011;31826;53.572;10.170;2023-04-03T03:55:34;8.57;;;3.15;;
46090;SDS011;31826;53.572;10.170;2023-04-03T03:58:00;7.40;;;2.88;;
46090;SDS011;31826;53.572;10.170;2023-04-03T04:00:27;7.32;;;2.30;;
46090;SDS011;31826;53.572;10.170;2023-04-03T04:02:52;10.55;;;3.05;;
46090;SDS011;31826;53.572;10.170;2023-04-03T04:05:18;9.00;;;2.70;;
46090;SDS011;31826;53.572;10.170;2023-04-03T04:07:44;6.57;;;2.97;;
46090;SDS011;31826;53.572;10.170;2023-04-03T04:10:10;6.28;;;2.85;;
46090;SDS011;31826;53.572;10.170;2023-04-03T04:12:36;8.88;;;3.05;;
46090;SDS011;31826;53.572;10.170;2023-04-03T04:15:02;8.13;;;2.80;;
46090;SDS011;31826;53.572;10.170;2023-04-03T04:17:28;7.63;;;2.70;;
46090;SDS011;31826;53.572;10.170;2023-04-03T04:19:53;7.63;;;2.60;;
46090;SDS011;31826;53.572;10.170;2023-04-03T04:22:19;7.00;;;2.80;;
46090;SDS011;31826;53.572;10.170;2023-04-03T04:24:45;10.30;;;3.73;;
46090;SDS011;31826;53.572;10.170;2023-04-03T04:27:10;13.13;;;5.10;;
46090;SDS011;31826;53.572;10.170;2023-04-03T04:29:36;9.43;;;3.63;;
46090;SDS011;31826;53.572;10.170;2023-04-03T04:32:03;9.27;;;3.40;;
46090;SDS011;31826;53.572;10.170;2023-04-03T04:34:30;6.95;;;3.10;;
46090;SDS011;31826;53.572;10.170;2023-04-03T04:36:55;8.23;;;3.10;;
46090;SDS011;31826;53.572;10.170;2023-04-03T04:39:21;9.38;;;3.08;;
46090;SDS011;31826;53.572;10.170;2023-04-03T04:41:47;8.88;;;2.53;;
46090;SDS011;31826;53.572;10.170;2023-04-03T04:44:13;8.70;;;2.78;;
46090;SDS011;31826;53.572;10.170;2023-04-03T04:46:38;8.88;;;2.65;;
46090;SDS011;31826;53.572;10.170;2023-04-03T04:49:04;5.32;;;2.30;;
46090;SDS011;31826;53.572;10.170;2023-04-03T04:51:30;8.10;;;2.85;;
46090;SDS011;31826;53.572;10.170;2023-04-03T04:53:56;9.43;;;2.60;;
46090;SDS011;31826;53.572;10.170;2023-04-03T04:56:21;7.43;;;2.53;;
46090;SDS011;31826;53.572;10.170;2023-04-03T04:58:47;6.73;;;2.40;;
46090;SDS011;31826;53.572;10.170;2023-04-03T05:01:13;7.63;;;2.70;;
46090;SDS011;31826;53.572;10.170;2023-04-03T05:03:38;7.47;;;3.40;;
46090;SDS011;31826;53.572;10.170;2023-04-03T05:06:04;8.73;;;3.80;;
46090;SDS011;31826;53.572;10.170;2023-04-03T05:08:32;8.70;;;3.15;;
46090;SDS011;31826;53.572;10.170;2023-04-03T05:10:58;10.33;;;4.23;;
46090;SDS011;31826;53.572;10.170;2023-04-03T05:13:23;17.37;;;7.23;;
46090;SDS011;31826;53.572;10.170;2023-04-03T05:15:49;12.10;;;4.97;;
46090;SDS011;31826;53.572;10.170;2023-04-03T05:18:15;12.35;;;4.38;;
46090;SDS011;31826;53.572;10.170;2023-04-03T05:20:41;15.00;;;4.93;;
46090;SDS011;31826;53.572;10.170;2023-04-03T05:23:08;16.67;;;6.82;;
46090;SDS011;31826;53.572;10.170;2023-04-03T05:25:37;11.70;;;4.82;;
46090;SDS011;31826;53.572;10.170;2023-04-03T05:28:03;12.10;;;4.47;;
46090;SDS011;31826;53.572;10.170;2023-04-03T05:30:29;13.48;;;4.50;;
46090;SDS011;31826;53.572;10.170;2023-04-03T05:32:54;10.75;;;4.13;;
46090;SDS011;31826;53.572;10.170;2023-04-03T05:35:20;10.85;;;4.05;;
46090;SDS011;31826;53.572;10.170;2023-04-03T05:37:46;10.27;;;3.45;;
46090;SDS011;31826;53.572;10.170;2023-04-03T05:40:12;10.05;;;2.78;;
46090;SDS011;31826;53.572;10.170;2023-04-03T05:42:38;6.80;;;2.40;;
46090;SDS011;31826;53.572;10.170;2023-04-03T05:45:03;6.60;;;2.67;;
46090;SDS011;31826;53.572;10.170;2023-04-03T05:47:30;20.70;;;7.85;;
46090;SDS011;31826;53.572;10.170;2023-04-03T05:49:56;5.80;;;2.53;;
46090;SDS011;31826;53.572;10.170;2023-04-03T05:52:28;8.57;;;3.10;;
46090;SDS011;31826;53.572;10.170;2023-04-03T05:54:57;5.38;;;2.67;;
46090;SDS011;31826;53.572;10.170;2023-04-03T05:57:22;6.75;;;2.80;;
46090;SDS011;31826;53.572;10.170;2023-04-03T05:59:48;8.63;;;3.10;;
46090;SDS011;31826;53.572;10.170;2023-04-03T06:02:16;6.83;;;3.20;;
46090;SDS011;31826;53.572;10.170;2023-04-03T06:04:44;8.20;;;3.00;;
46090;SDS011;31826;53.572;10.170;2023-04-03T06:07:15;7.78;;;3.38;;
46090;SDS011;31826;53.572;10.170;2023-04-03T06:09:42;6.65;;;3.35;;
46090;SDS011;31826;53.572;10.170;2023-04-03T06:12:08;6.63;;;2.83;;
46090;SDS011;31826;53.572;10.170;2023-04-03T06:14:34;6.63;;;2.50;;
46090;SDS011;31826;53.572;10.170;2023-04-03T06:17:00;8.57;;;3.00;;
46090;SDS011;31826;53.572;10.170;2023-04-03T06:19:26;9.13;;;2.50;;
46090;SDS011;31826;53.572;10.170;2023-04-03T06:21:53;5.43;;;2.17;;
46090;SDS011;31826;53.572;10.170;2023-04-03T06:24:19;6.90;;;2.57;;
46090;SDS011;31826;53.572;10.170;2023-04-03T06:26:46;7.20;;;2.35;;
46090;SDS011;31826;53.572;10.170;2023-04-03T06:29:12;7.70;;;2.97;;
46090;SDS011;31826;53.572;10.170;2023-04-03T06:31:38;6.30;;;2.65;;
46090;SDS011;31826;53.572;10.170;2023-04-03T06:34:04;15.38;;;6.25;;
46090;SDS011;31826;53.572;10.170;2023-04-03T06:36:32;7.20;;;2.40;;
46090;SDS011;31826;53.572;10.170;2023-04-03T06:38:58;8.35;;;2.50;;
46090;SDS011;31826;53.572;10.170;2023-04-03T06:41:24;6.55;;;2.15;;
46090;SDS011;31826;53.572;10.170;2023-04-03T06:43:51;6.63;;;2.30;;
46090;SDS011;31826;53.572;10.170;2023-04-03T06:46:18;4.68;;;2.28;;
46090;SDS011;31826;53.572;10.170;2023-04-03T06:48:46;6.28;;;1.90;;
46090;SDS011;31826;53.572;10.170;2023-04-03T06:51:19;6.28;;;2.17;;
46090;SDS011;31826;53.572;10.170;2023-04-03T06:53:52;6.25;;;1.88;;
46090;SDS011;31826;53.572;10.170;2023-04-03T06:56:19;4.18;;;1.83;;
46090;SDS011;31826;53.572;10.170;2023-04-03T06:58:45;6.43;;;2.00;;
46090;SDS011;31826;53.572;10.170;2023-04-03T07:01:12;5.35;;;1.55;;
46090;SDS011;31826;53.572;10.170;2023-04-03T07:03:40;7.32;;;1.80;;
46090;SDS011;31826;53.572;10.170;2023-04-03T07:06:06;5.07;;;1.75;;
46090;SDS011;31826;53.572;10.170;2023-04-03T07:08:35;5.37;;;1.67;;
46090;SDS011;31826;53.572;10.170;2023-04-03T07:11:01;4.67;;;1.83;;
46090;SDS011;31826;53.572;10.170;2023-04-03T07:13:27;5.35;;;1.67;;
46090;SDS011;31826;53.572;10.170;2023-04-03T07:15:53;7.00;;;1.90;;
46090;SDS011;31826;53.572;10.170;2023-04-03T07:18:19;7.30;;;1.70;;
46090;SDS011;31826;53.572;10.170;2023-04-03T07:20:46;7.80;;;1.88;;
46090;SDS011;31826;53.572;10.170;2023-04-03T07:23:12;4.45;;;1.60;;
46090;SDS011;31826;53.572;10.170;2023-04-03T07:25:47;4.07;;;1.50;;
46090;SDS011;31826;53.572;10.170;2023-04-03T07:28:15;3.88;;;1.75;;
46090;SDS011;31826;53.572;10.170;2023-04-03T07:30:43;2.75;;;1.50;;
46090;SDS011;31826;53.572;10.170;2023-04-03T07:33:13;5.40;;;1.70;;
46090;SDS011;31826;53.572;10.170;2023-04-03T07:35:40;6.10;;;1.83;;
46090;SDS011;31826;53.572;10.170;2023-04-03T07:38:06;3.75;;;1.35;;
46090;SDS011;31826;53.572;10.170;2023-04-03T07:40:33;3.72;;;1.52;;
46090;SDS011;31826;53.572;10.170;2023-04-03T07:43:00;5.53;;;1.73;;
46090;SDS011;31826;53.572;10.170;2023-04-03T07:45:26;3.83;;;1.67;;
46090;SDS011;31826;53.572;10.170;2023-04-03T07:47:52;8.05;;;2.55;;
46090;SDS011;31826;53.572;10.170;2023-04-03T07:50:18;3.40;;;1.48;;
46090;SDS011;31826;53.572;10.170;2023-04-03T07:52:43;4.70;;;1.50;;
46090;SDS011;31826;53.572;10.170;2023-04-03T07:55:10;3.72;;;1.63;;
46090;SDS011;31826;53.572;10.170;2023-04-03T07:57:36;5.75;;;2.42;;
46090;SDS011;31826;53.572;10.170;2023-04-03T08:00:03;5.40;;;1.95;;
46090;SDS011;31826;53.572;10.170;2023-04-03T08:02:29;5.05;;;1.50;;
46090;SDS011;31826;53.572;10.170;2023-04-03T08:04:57;4.95;;;1.30;;
46090;SDS011;31826;53.572;10.170;2023-04-03T08:07:23;4.55;;;1.35;;
46090;SDS011;31826;53.572;10.170;2023-04-03T08:09:49;4.28;;;1.30;;
46090;SDS011;31826;53.572;10.170;2023-04-03T08:12:15;4.30;;;1.10;;
46090;SDS011;31826;53.572;10.170;2023-04-03T08:14:41;2.50;;;1.00;;
46090;SDS011;31826;53.572;10.170;2023-04-03T08:17:07;1.93;;;1.07;;
46090;SDS011;31826;53.572;10.170;2023-04-03T08:19:36;4.00;;;0.88;;
46090;SDS011;31826;53.572;10.170;2023-04-03T08:22:03;4.47;;;1.20;;
46090;SDS011;31826;53.572;10.170;2023-04-03T08:24:30;3.05;;;1.30;;
46090;SDS011;31826;53.572;10.170;2023-04-03T08:26:56;2.53;;;1.17;;
46090;SDS011;31826;53.572;10.170;2023-04-03T08:29:22;1.77;;;1.10;;
46090;SDS011;31826;53.572;10.170;2023-04-03T08:31:49;3.00;;;0.93;;
46090;SDS011;31826;53.572;10.170;2023-04-03T08:34:15;3.95;;;1.20;;
46090;SDS011;31826;53.572;10.170;2023-04-03T08:36:42;3.17;;;1.50;;
46090;SDS011;31826;53.572;10.170;2023-04-03T08:39:08;5.53;;;1.40;;
46090;SDS011;31826;53.572;10.170;2023-04-03T08:41:35;3.25;;;1.13;;
46090;SDS011;31826;53.572;10.170;2023-04-03T08:50:02;3.92;;;1.10;;
46090;SDS011;31826;53.572;10.170;2023-04-03T08:57:48;3.97;;;1.17;;
46090;SDS011;31826;53.572;10.170;2023-04-03T09:00:23;2.08;;;0.90;;
46090;SDS011;31826;53.572;10.170;2023-04-03T09:02:51;2.30;;;1.00;;
46090;SDS011;31826;53.572;10.170;2023-04-03T09:05:19;2.40;;;1.10;;
46090;SDS011;31826;53.572;10.170;2023-04-03T09:08:06;4.13;;;1.10;;
46090;SDS011;31826;53.572;10.170;2023-04-03T09:10:39;2.08;;;0.95;;
46090;SDS011;31826;53.572;10.170;2023-04-03T09:13:09;2.58;;;1.10;;
46090;SDS011;31826;53.572;10.170;2023-04-03T09:15:46;1.63;;;0.90;;
46090;SDS011;31826;53.572;10.170;2023-04-03T09:24:01;1.73;;;0.80;;
46090;SDS011;31826;53.572;10.170;2023-04-03T09:26:30;2.15;;;0.80;;
46090;SDS011;31826;53.572;10.170;2023-04-03T09:29:07;1.85;;;0.90;;
46090;SDS011;31826;53.572;10.170;2023-04-03T09:31:37;1.60;;;0.90;;
46090;SDS011;31826;53.572;10.170;2023-04-03T09:34:08;4.03;;;0.80;;
46090;SDS011;31826;53.572;10.170;2023-04-03T09:36:44;1.17;;;0.80;;
46090;SDS011;31826;53.572;10.170;2023-04-03T09:39:19;1.70;;;1.00;;
46090;SDS011;31826;53.572;10.170;2023-04-03T09:42:03;1.33;;;0.77;;
46090;SDS011;31826;53.572;10.170;2023-04-03T09:44:31;2.50;;;0.90;;
46090;SDS011;31826;53.572;10.170;2023-04-03T09:47:00;1.30;;;0.80;;
46090;SDS011;31826;53.572;10.170;2023-04-03T09:49:44;1.48;;;0.82;;
46090;SDS011;31826;53.572;10.170;2023-04-03T09:52:23;2.95;;;0.93;;
46090;SDS011;31826;53.572;10.170;2023-04-03T09:54:51;1.25;;;0.90;;
46090;SDS011;31826;53.572;10.170;2023-04-03T09:57:17;1.83;;;0.88;;
46090;SDS011;31826;53.572;10.170;2023-04-03T09:59:48;3.72;;;1.00;;
46090;SDS011;31826;53.572;10.170;2023-04-03T10:02:35;2.97;;;1.00;;
46090;SDS011;31826;53.572;10.170;2023-04-03T10:05:02;3.22;;;1.30;;
46090;SDS011;31826;53.572;10.170;2023-04-03T10:07:33;1.73;;;0.80;;
46090;SDS011;31826;53.572;10.170;2023-04-03T10:10:23;1.60;;;1.17;;
46090;SDS011;31826;53.572;10.170;2023-04-03T10:13:06;1.50;;;1.00;;
46090;SDS011;31826;53.572;10.170;2023-04-03T10:15:37;3.67;;;0.93;;
46090;SDS011;31826;53.572;10.170;2023-04-03T10:20:54;2.70;;;1.10;;
46090;SDS011;31826;53.572;10.170;2023-04-03T10:23:50;1.40;;;0.90;;
46090;SDS011;31826;53.572;10.170;2023-04-03T10:31:43;1.92;;;0.90;;
46090;SDS011;31826;53.572;10.170;2023-04-03T10:34:31;2.47;;;1.08;;
46090;SDS011;31826;53.572;10.170;2023-04-03T10:37:14;3.08;;;1.10;;
46090;SDS011;31826;53.572;10.170;2023-04-03T10:44:52;2.17;;;0.90;;
46090;SDS011;31826;53.572;10.170;2023-04-03T10:53:01;4.25;;;1.30;;
46090;SDS011;31826;53.572;10.170;2023-04-03T10:55:46;2.95;;;1.05;;
46090;SDS011;31826;53.572;10.170;2023-04-03T10:58:38;3.65;;;1.10;;
46090;SDS011;31826;53.572;10.170;2023-04-03T11:01:27;2.22;;;0.95;;
46090;SDS011;31826;53.572;10.170;2023-04-03T11:03:59;2.53;;;0.90;;
46090;SDS011;31826;53.572;10.170;2023-04-03T11:06:32;3.90;;;1.40;;
46090;SDS011;31826;53.572;10.170;2023-04-03T11:09:26;3.50;;;1.20;;
46090;SDS011;31826;53.572;10.170;2023-04-03T11:12:04;4.93;;;1.40;;
46090;SDS011;31826;53.572;10.170;2023-04-03T11:14:53;4.73;;;1.17;;
46090;SDS011;31826;53.572;10.170;2023-04-03T11:17:35;2.03;;;0.90;;
46090;SDS011;31826;53.572;10.170;2023-04-03T11:20:28;2.83;;;1.02;;
46090;SDS011;31826;53.572;10.170;2023-04-03T11:23:02;3.50;;;1.48;;
46090;SDS011;31826;53.572;10.170;2023-04-03T11:25:38;1.95;;;1.08;;
46090;SDS011;31826;53.572;10.170;2023-04-03T11:28:09;4.70;;;1.42;;
46090;SDS011;31826;53.572;10.170;2023-04-03T11:30:49;4.20;;;1.88;;
46090;SDS011;31826;53.572;10.170;2023-04-03T11:42:46;1.60;;;0.80;;
46090;SDS011;31826;53.572;10.170;2023-04-03T11:50:31;1.20;;;0.70;;
46090;SDS011;31826;53.572;10.170;2023-04-03T12:16:22;2.45;;;1.10;;
46090;SDS011;31826;53.572;10.170;2023-04-03T12:48:30;2.88;;;1.27;;
46090;SDS011;31826;53.572;10.170;2023-04-03T12:50:59;2.58;;;0.98;;
46090;SDS011;31826;53.572;10.170;2023-04-03T12:53:26;2.75;;;0.82;;
46090;SDS011;31826;53.572;10.170;2023-04-03T12:58:56;5.55;;;1.35;;
46090;SDS011;31826;53.572;10.170;2023-04-03T13:01:58;2.83;;;1.00;;
46090;SDS011;31826;53.572;10.170;2023-04-03T13:04:29;1.63;;;0.80;;
46090;SDS011;31826;53.572;10.170;2023-04-03T13:06:56;1.77;;;1.00;;
46090;SDS011;31826;53.572;10.170;2023-04-03T13:12:00;4.55;;;1.15;;
46090;SDS011;31826;53.572;10.170;2023-04-03T13:14:37;4.85;;;1.08;;
46090;SDS011;31826;53.572;10.170;2023-04-03T13:17:06;2.70;;;0.90;;
46090;SDS011;31826;53.572;10.170;2023-04-03T13:19:39;2.97;;;1.08;;
46090;SDS011;31826;53.572;10.170;2023-04-03T13:24:59;1.37;;;0.80;;
46090;SDS011;31826;53.572;10.170;2023-04-03T13:27:30;2.35;;;0.98;;
46090;SDS011;31826;53.572;10.170;2023-04-03T13:29:57;3.10;;;0.90;;
46090;SDS011;31826;53.572;10.170;2023-04-03T13:32:26;1.40;;;0.85;;
46090;SDS011;31826;53.572;10.170;2023-04-03T13:34:53;3.00;;;0.93;;
46090;SDS011;31826;53.572;10.170;2023-04-03T13:37:23;1.93;;;1.00;;
46090;SDS011;31826;53.572;10.170;2023-04-03T13:40:10;3.27;;;1.07;;
46090;SDS011;31826;53.572;10.170;2023-04-03T13:42:38;1.40;;;0.85;;
46090;SDS011;31826;53.572;10.170;2023-04-03T13:45:21;2.88;;;1.08;;
46090;SDS011;31826;53.572;10.170;2023-04-03T13:47:53;1.70;;;1.20;;
46090;SDS011;31826;53.572;10.170;2023-04-03T13:50:32;3.35;;;1.10;;
46090;SDS011;31826;53.572;10.170;2023-04-03T13:53:02;3.03;;;1.00;;
46090;SDS011;31826;53.572;10.170;2023-04-03T13:55:37;3.20;;;1.20;;
46090;SDS011;31826;53.572;10.170;2023-04-03T13:58:22;2.40;;;1.00;;
46090;SDS011;31826;53.572;10.170;2023-04-03T14:00:53;5.32;;;1.88;;
46090;SDS011;31826;53.572;10.170;2023-04-03T14:03:43;2.40;;;1.10;;
46090;SDS011;31826;53.572;10.170;2023-04-03T14:06:14;3.37;;;1.30;;
46090;SDS011;31826;53.572;10.170;2023-04-03T14:08:41;4.18;;;1.80;;
46090;SDS011;31826;53.572;10.170;2023-04-03T14:11:09;2.80;;;1.13;;
46090;SDS011;31826;53.572;10.170;2023-04-03T14:13:42;3.45;;;1.20;;
46090;SDS011;31826;53.572;10.170;2023-04-03T14:16:12;2.20;;;1.30;;
46090;SDS011;31826;53.572;10.170;2023-04-03T14:18:39;1.40;;;1.10;;
46090;SDS011;31826;53.572;10.170;2023-04-03T14:21:05;4.10;;;1.95;;
46090;SDS011;31826;53.572;10.170;2023-04-03T14:23:31;3.92;;;1.10;;
46090;SDS011;31826;53.572;10.170;2023-04-03T14:25:58;4.25;;;1.40;;
46090;SDS011;31826;53.572;10.170;2023-04-03T14:28:25;1.08;;;0.95;;
46090;SDS011;31826;53.572;10.170;2023-04-03T14:30:51;2.83;;;1.10;;
46090;SDS011;31826;53.572;10.170;2023-04-03T14:33:18;3.25;;;1.08;;
46090;SDS011;31826;53.572;10.170;2023-04-03T14:35:46;2.78;;;1.10;;
46090;SDS011;31826;53.572;10.170;2023-04-03T14:38:25;1.40;;;0.90;;
46090;SDS011;31826;53.572;10.170;2023-04-03T14:40:53;2.17;;;0.90;;
46090;SDS011;31826;53.572;10.170;2023-04-03T14:43:19;3.78;;;0.93;;
46090;SDS011;31826;53.572;10.170;2023-04-03T14:45:46;1.27;;;1.00;;
46090;SDS011;31826;53.572;10.170;2023-04-03T14:48:16;1.75;;;0.90;;
46090;SDS011;31826;53.572;10.170;2023-04-03T14:50:50;2.40;;;0.95;;
46090;SDS011;31826;53.572;10.170;2023-04-03T14:53:17;2.05;;;0.82;;
46090;SDS011;31826;53.572;10.170;2023-04-03T14:55:47;2.78;;;1.17;;
46090;SDS011;31826;53.572;10.170;2023-04-03T14:58:15;3.63;;;1.23;;
46090;SDS011;31826;53.572;10.170;2023-04-03T15:00:45;2.55;;;1.02;;
46090;SDS011;31826;53.572;10.170;2023-04-03T15:03:21;4.07;;;1.40;;
46090;SDS011;31826;53.572;10.170;2023-04-03T15:05:47;3.50;;;1.00;;
46090;SDS011;31826;53.572;10.170;2023-04-03T15:08:24;1.80;;;1.00;;
46090;SDS011;31826;53.572;10.170;2023-04-03T15:10:51;2.70;;;1.05;;
46090;SDS011;31826;53.572;10.170;2023-04-03T15:13:18;1.33;;;0.90;;
46090;SDS011;31826;53.572;10.170;2023-04-03T15:15:45;1.60;;;1.00;;
46090;SDS011;31826;53.572;10.170;2023-04-03T15:18:13;3.80;;;1.25;;
46090;SDS011;31826;53.572;10.170;2023-04-03T15:20:43;2.75;;;1.45;;
46090;SDS011;31826;53.572;10.170;2023-04-03T15:23:10;4.35;;;1.10;;
46090;SDS011;31826;53.572;10.170;2023-04-03T15:25:37;3.83;;;1.33;;
46090;SDS011;31826;53.572;10.170;2023-04-03T15:28:04;1.55;;;1.00;;
46090;SDS011;31826;53.572;10.170;2023-04-03T15:30:30;4.20;;;1.48;;
46090;SDS011;31826;53.572;10.170;2023-04-03T15:32:56;3.72;;;1.35;;
46090;SDS011;31826;53.572;10.170;2023-04-03T15:35:22;1.93;;;1.00;;
46090;SDS011;31826;53.572;10.170;2023-04-03T15:37:48;1.98;;;0.98;;
46090;SDS011;31826;53.572;10.170;2023-04-03T15:40:13;2.42;;;1.00;;
46090;SDS011;31826;53.572;10.170;2023-04-03T15:42:40;1.58;;;0.90;;
46090;SDS011;31826;53.572;10.170;2023-04-03T15:45:06;2.35;;;1.00;;
46090;SDS011;31826;53.572;10.170;2023-04-03T15:47:32;1.23;;;0.90;;
46090;SDS011;31826;53.572;10.170;2023-04-03T15:49:59;6.17;;;1.50;;
46090;SDS011;31826;53.572;10.170;2023-04-03T15:52:25;2.03;;;1.20;;
46090;SDS011;31826;53.572;10.170;2023-04-03T15:54:50;3.42;;;1.10;;
46090;SDS011;31826;53.572;10.170;2023-04-03T15:57:16;3.17;;;1.10;;
46090;SDS011;31826;53.572;10.170;2023-04-03T15:59:42;2.50;;;0.95;;
46090;SDS011;31826;53.572;10.170;2023-04-03T16:02:08;3.60;;;1.48;;
46090;SDS011;31826;53.572;10.170;2023-04-03T16:04:37;2.60;;;1.40;;
46090;SDS011;31826;53.572;10.170;2023-04-03T16:07:03;3.10;;;1.30;;
46090;SDS011;31826;53.572;10.170;2023-04-03T16:09:30;2.77;;;1.00;;
46090;SDS011;31826;53.572;10.170;2023-04-03T16:11:57;3.93;;;1.43;;
46090;SDS011;31826;53.572;10.170;2023-04-03T16:14:23;3.00;;;1.27;;
46090;SDS011;31826;53.572;10.170;2023-04-03T16:16:49;3.30;;;1.47;;
46090;SDS011;31826;53.572;10.170;2023-04-03T16:19:15;3.45;;;1.20;;
46090;SDS011;31826;53.572;10.170;2023-04-03T16:21:41;3.05;;;1.20;;
46090;SDS011;31826;53.572;10.170;2023-04-03T16:24:06;2.33;;;1.10;;
46090;SDS011;31826;53.572;10.170;2023-04-03T16:26:32;3.20;;;1.13;;
46090;SDS011;31826;53.572;10.170;2023-04-03T16:28:58;2.45;;;1.30;;
46090;SDS011;31826;53.572;10.170;2023-04-03T16:31:24;2.75;;;1.00;;
46090;SDS011;31826;53.572;10.170;2023-04-03T16:33:51;2.88;;;1.27;;
46090;SDS011;31826;53.572;10.170;2023-04-03T16:36:17;3.42;;;1.30;;